sensor_id;sensor_type;location;lat;lon;timestamp;pressure;altitude;pressure_sealevel;temperature;humidity
19672;BME280;9983;51.114;13.788;2022-08-18T00:02:06;98808.72;;;23.06;62.83
19672;BME280;9983;51.114;13.788;2022-08-18T00:07:13;98802.38;;;22.75;62.91
19672;BME280;9983;51.114;13.788;2022-08-18T00:12:20;98787.91;;;23.10;62.65
19672;BME280;9983;51.114;13.788;2022-08-18T00:17:22;98784.59;;;22.78;63.66
19672;BME280;9983;51.114;13.788;2022-08-18T00:22:23;98786.28;;;22.99;61.88
19672;BME280;9983;51.114;13.788;2022-08-18T00:27:28;98785.75;;;23.12;60.52
19672;BME280;9983;51.114;13.788;2022-08-18T00:32:38;98789.00;;;22.84;61.98
19672;BME280;9983;51.114;13.788;2022-08-18T00:37:39;98796.09;;;22.85;61.20
19672;BME280;9983;51.114;13.788;2022-08-18T00:42:47;98783.53;;;23.04;60.61
19672;BME280;9983;51.114;13.788;2022-08-18T00:47:48;98797.78;;;23.06;59.87
19672;BME280;9983;51.114;13.788;2022-08-18T00:52:54;98803.22;;;22.76;62.25
19672;BME280;9983;51.114;13.788;2022-08-18T00:58:02;98803.66;;;22.62;63.57
19672;BME280;9983;51.114;13.788;2022-08-18T01:03:11;98814.41;;;22.12;64.89
19672;BME280;9983;51.114;13.788;2022-08-18T01:08:13;98799.00;;;22.43;64.27
19672;BME280;9983;51.114;13.788;2022-08-18T01:13:14;98806.03;;;21.86;66.63
19672;BME280;9983;51.114;13.788;2022-08-18T01:18:15;98796.78;;;22.40;65.14
19672;BME280;9983;51.114;13.788;2022-08-18T01:23:34;98804.03;;;22.14;65.98
19672;BME280;9983;51.114;13.788;2022-08-18T01:28:41;98801.06;;;22.15;64.22
19672;BME280;9983;51.114;13.788;2022-08-18T01:33:42;98801.44;;;22.44;62.69
19672;BME280;9983;51.114;13.788;2022-08-18T01:38:44;98802.66;;;22.11;64.59
19672;BME280;9983;51.114;13.788;2022-08-18T01:43:45;98809.44;;;21.99;66.15
19672;BME280;9983;51.114;13.788;2022-08-18T01:48:47;98800.06;;;21.89;66.09
19672;BME280;9983;51.114;13.788;2022-08-18T01:53:48;98804.50;;;21.22;69.41
19672;BME280;9983;51.114;13.788;2022-08-18T01:58:48;98801.97;;;21.47;68.25
19672;BME280;9983;51.114;13.788;2022-08-18T02:03:52;98803.84;;;21.41;68.29
19672;BME280;9983;51.114;13.788;2022-08-18T02:08:54;98805.88;;;21.56;68.18
19672;BME280;9983;51.114;13.788;2022-08-18T02:13:54;98805.28;;;21.54;68.34
19672;BME280;9983;51.114;13.788;2022-08-18T02:18:54;98804.72;;;21.52;67.87
19672;BME280;9983;51.114;13.788;2022-08-18T02:23:55;98812.38;;;21.50;67.48
19672;BME280;9983;51.114;13.788;2022-08-18T02:28:55;98806.25;;;21.33;68.10
19672;BME280;9983;51.114;13.788;2022-08-18T02:33:56;98793.88;;;21.57;69.21
19672;BME280;9983;51.114;13.788;2022-08-18T02:38:56;98784.06;;;21.61;66.57
19672;BME280;9983;51.114;13.788;2022-08-18T02:43:57;98790.41;;;21.30;68.35
19672;BME280;9983;51.114;13.788;2022-08-18T02:49:01;98790.19;;;21.09;70.37
19672;BME280;9983;51.114;13.788;2022-08-18T02:54:01;98780.66;;;20.80;72.30
19672;BME280;9983;51.114;13.788;2022-08-18T02:59:05;98769.28;;;20.88;71.81
19672;BME280;9983;51.114;13.788;2022-08-18T03:04:07;98763.94;;;20.98;72.12
19672;BME280;9983;51.114;13.788;2022-08-18T03:09:11;98770.31;;;21.41;68.96
19672;BME280;9983;51.114;13.788;2022-08-18T03:14:13;98762.75;;;21.53;67.88
19672;BME280;9983;51.114;13.788;2022-08-18T03:19:14;98767.03;;;21.39;69.19
19672;BME280;9983;51.114;13.788;2022-08-18T03:24:15;98773.06;;;20.82;72.18
19672;BME280;9983;51.114;13.788;2022-08-18T03:29:16;98771.31;;;20.71;72.91
19672;BME280;9983;51.114;13.788;2022-08-18T03:34:18;98763.09;;;20.66;72.84
19672;BME280;9983;51.114;13.788;2022-08-18T03:39:19;98773.00;;;20.28;74.49
19672;BME280;9983;51.114;13.788;2022-08-18T03:44:22;98774.06;;;20.76;73.02
19672;BME280;9983;51.114;13.788;2022-08-18T03:49:22;98769.88;;;20.90;71.51
19672;BME280;9983;51.114;13.788;2022-08-18T03:54:23;98773.22;;;21.02;71.53
19672;BME280;9983;51.114;13.788;2022-08-18T03:59:24;98780.94;;;21.10;71.74
19672;BME280;9983;51.114;13.788;2022-08-18T04:04:27;98780.66;;;20.80;72.95
19672;BME280;9983;51.114;13.788;2022-08-18T04:09:29;98773.91;;;20.12;76.64
19672;BME280;9983;51.114;13.788;2022-08-18T04:14:29;98787.66;;;19.84;78.23
19672;BME280;9983;51.114;13.788;2022-08-18T04:19:31;98791.72;;;20.03;77.37
19672;BME280;9983;51.114;13.788;2022-08-18T04:24:33;98782.91;;;20.61;75.22
19672;BME280;9983;51.114;13.788;2022-08-18T04:29:33;98776.00;;;20.75;73.73
19672;BME280;9983;51.114;13.788;2022-08-18T04:34:34;98787.16;;;19.87;78.65
19672;BME280;9983;51.114;13.788;2022-08-18T04:39:34;98795.25;;;20.69;74.28
19672;BME280;9983;51.114;13.788;2022-08-18T04:44:35;98802.03;;;20.39;75.05
19672;BME280;9983;51.114;13.788;2022-08-18T04:49:36;98796.81;;;20.16;76.98
19672;BME280;9983;51.114;13.788;2022-08-18T04:54:38;98801.13;;;20.56;75.41
19672;BME280;9983;51.114;13.788;2022-08-18T04:59:40;98805.66;;;20.28;77.07
19672;BME280;9983;51.114;13.788;2022-08-18T05:04:42;98809.56;;;20.81;74.59
19672;BME280;9983;51.114;13.788;2022-08-18T05:09:46;98808.72;;;21.07;73.51
19672;BME280;9983;51.114;13.788;2022-08-18T05:14:47;98810.03;;;21.32;72.41
19672;BME280;9983;51.114;13.788;2022-08-18T05:19:47;98810.47;;;21.18;73.08
19672;BME280;9983;51.114;13.788;2022-08-18T05:24:47;98812.72;;;21.27;73.48
19672;BME280;9983;51.114;13.788;2022-08-18T05:29:48;98801.50;;;21.60;70.98
19672;BME280;9983;51.114;13.788;2022-08-18T05:34:48;98812.97;;;21.57;71.96
19672;BME280;9983;51.114;13.788;2022-08-18T05:39:57;98802.34;;;21.24;73.59
19672;BME280;9983;51.114;13.788;2022-08-18T05:45:00;98810.81;;;21.59;71.89
19672;BME280;9983;51.114;13.788;2022-08-18T05:50:11;98808.41;;;21.31;73.38
19672;BME280;9983;51.114;13.788;2022-08-18T05:55:15;98815.41;;;21.22;74.63
19672;BME280;9983;51.114;13.788;2022-08-18T06:00:38;98812.06;;;21.88;72.50
19672;BME280;9983;51.114;13.788;2022-08-18T06:05:58;98821.03;;;22.26;70.63
19672;BME280;9983;51.114;13.788;2022-08-18T06:11:00;98815.72;;;22.66;69.79
19672;BME280;9983;51.114;13.788;2022-08-18T06:16:45;98815.25;;;22.90;68.63
19672;BME280;9983;51.114;13.788;2022-08-18T06:21:30;98804.03;;;22.96;68.59
19672;BME280;9983;51.114;13.788;2022-08-18T06:27:07;98815.81;;;23.37;67.96
19672;BME280;9983;51.114;13.788;2022-08-18T06:32:17;98813.09;;;23.63;66.73
19672;BME280;9983;51.114;13.788;2022-08-18T06:43:14;98810.19;;;24.39;62.63
19672;BME280;9983;51.114;13.788;2022-08-18T06:48:32;98810.59;;;24.66;61.49
19672;BME280;9983;51.114;13.788;2022-08-18T06:53:59;98821.13;;;24.98;60.14
19672;BME280;9983;51.114;13.788;2022-08-18T06:59:33;98811.31;;;25.26;58.60
19672;BME280;9983;51.114;13.788;2022-08-18T07:04:41;98813.78;;;25.56;57.83
19672;BME280;9983;51.114;13.788;2022-08-18T07:09:42;98809.25;;;25.76;56.92
19672;BME280;9983;51.114;13.788;2022-08-18T07:14:49;98815.97;;;26.12;56.27
19672;BME280;9983;51.114;13.788;2022-08-18T07:20:03;98823.25;;;26.51;54.96
19672;BME280;9983;51.114;13.788;2022-08-18T07:25:05;98821.81;;;27.14;53.25
19672;BME280;9983;51.114;13.788;2022-08-18T07:35:29;98813.97;;;27.59;51.44
19672;BME280;9983;51.114;13.788;2022-08-18T07:40:35;98818.78;;;27.67;50.93
19672;BME280;9983;51.114;13.788;2022-08-18T07:45:43;98816.38;;;28.07;50.15
19672;BME280;9983;51.114;13.788;2022-08-18T07:50:53;98831.47;;;27.95;50.05
19672;BME280;9983;51.114;13.788;2022-08-18T07:56:04;98845.53;;;27.80;50.30
19672;BME280;9983;51.114;13.788;2022-08-18T08:01:26;98850.84;;;27.90;49.48
19672;BME280;9983;51.114;13.788;2022-08-18T08:06:43;98835.91;;;28.24;48.53
19672;BME280;9983;51.114;13.788;2022-08-18T08:11:54;98842.56;;;28.23;48.53
19672;BME280;9983;51.114;13.788;2022-08-18T08:17:04;98836.84;;;28.60;48.18
19672;BME280;9983;51.114;13.788;2022-08-18T08:22:17;98834.03;;;29.01;47.02
19672;BME280;9983;51.114;13.788;2022-08-18T08:32:49;98848.44;;;28.98;47.46
19672;BME280;9983;51.114;13.788;2022-08-18T08:37:57;98853.22;;;29.42;45.40
19672;BME280;9983;51.114;13.788;2022-08-18T08:43:06;98854.03;;;29.88;46.04
19672;BME280;9983;51.114;13.788;2022-08-18T08:48:13;98855.94;;;29.20;45.57
19672;BME280;9983;51.114;13.788;2022-08-18T08:53:23;98841.25;;;29.33;45.62
19672;BME280;9983;51.114;13.788;2022-08-18T08:58:31;98842.78;;;29.84;44.26
19672;BME280;9983;51.114;13.788;2022-08-18T09:09:42;98823.13;;;30.16;43.28
19672;BME280;9983;51.114;13.788;2022-08-18T09:35:56;98783.91;;;31.57;38.24
19672;BME280;9983;51.114;13.788;2022-08-18T09:41:06;98787.56;;;31.96;37.59
19672;BME280;9983;51.114;13.788;2022-08-18T09:51:47;98780.63;;;31.55;36.76
19672;BME280;9983;51.114;13.788;2022-08-18T10:01:48;98771.25;;;32.62;35.38
19672;BME280;9983;51.114;13.788;2022-08-18T10:06:49;98768.38;;;32.29;35.67
19672;BME280;9983;51.114;13.788;2022-08-18T10:22:48;98759.66;;;32.01;36.33
19672;BME280;9983;51.114;13.788;2022-08-18T10:27:53;98762.06;;;32.11;36.17
19672;BME280;9983;51.114;13.788;2022-08-18T10:32:56;98769.25;;;31.65;37.32
19672;BME280;9983;51.114;13.788;2022-08-18T10:37:57;98778.34;;;31.75;37.77
19672;BME280;9983;51.114;13.788;2022-08-18T10:43:08;98776.47;;;31.15;38.39
19672;BME280;9983;51.114;13.788;2022-08-18T10:53:49;98768.63;;;31.34;38.18
19672;BME280;9983;51.114;13.788;2022-08-18T11:04:28;98766.69;;;30.91;39.58
19672;BME280;9983;51.114;13.788;2022-08-18T11:09:30;98766.53;;;30.88;39.80
19672;BME280;9983;51.114;13.788;2022-08-18T11:15:00;98783.94;;;30.88;40.02
19672;BME280;9983;51.114;13.788;2022-08-18T11:20:07;98786.91;;;31.18;38.94
19672;BME280;9983;51.114;13.788;2022-08-18T11:25:24;98795.53;;;30.34;39.60
19672;BME280;9983;51.114;13.788;2022-08-18T11:30:31;98789.81;;;30.78;39.42
19672;BME280;9983;51.114;13.788;2022-08-18T11:35:44;98807.19;;;30.53;40.25
19672;BME280;9983;51.114;13.788;2022-08-18T11:40:49;98806.59;;;30.34;40.43
19672;BME280;9983;51.114;13.788;2022-08-18T11:45:57;98800.22;;;30.81;39.71
19672;BME280;9983;51.114;13.788;2022-08-18T11:51:02;98812.25;;;30.68;39.74
19672;BME280;9983;51.114;13.788;2022-08-18T12:01:05;98816.41;;;29.78;42.79
19672;BME280;9983;51.114;13.788;2022-08-18T12:11:17;98815.28;;;29.57;43.55
19672;BME280;9983;51.114;13.788;2022-08-18T12:16:40;98820.50;;;30.11;42.59
19672;BME280;9983;51.114;13.788;2022-08-18T12:21:44;98822.97;;;29.37;44.33
19672;BME280;9983;51.114;13.788;2022-08-18T12:26:46;98829.81;;;29.93;43.09
19672;BME280;9983;51.114;13.788;2022-08-18T12:31:50;98829.81;;;29.93;43.05
19672;BME280;9983;51.114;13.788;2022-08-18T12:36:54;98835.44;;;29.35;44.36
19672;BME280;9983;51.114;13.788;2022-08-18T12:41:55;98817.88;;;30.06;43.08
19672;BME280;9983;51.114;13.788;2022-08-18T12:46:55;98794.72;;;31.16;40.65
19672;BME280;9983;51.114;13.788;2022-08-18T12:51:57;98798.25;;;30.73;41.20
19672;BME280;9983;51.114;13.788;2022-08-18T12:56:57;98802.50;;;30.79;41.05
19672;BME280;9983;51.114;13.788;2022-08-18T13:01:58;98807.38;;;30.26;42.08
19672;BME280;9983;51.114;13.788;2022-08-18T13:06:58;98803.63;;;30.61;41.69
19672;BME280;9983;51.114;13.788;2022-08-18T13:11:59;98788.47;;;30.67;41.71
19672;BME280;9983;51.114;13.788;2022-08-18T13:16:59;98768.97;;;31.24;40.92
19672;BME280;9983;51.114;13.788;2022-08-18T13:21:59;98764.44;;;31.11;41.21
19672;BME280;9983;51.114;13.788;2022-08-18T13:27:01;98748.28;;;30.96;41.10
19672;BME280;9983;51.114;13.788;2022-08-18T13:32:02;98732.66;;;31.08;40.75
19672;BME280;9983;51.114;13.788;2022-08-18T13:37:07;98728.91;;;31.30;40.27
19672;BME280;9983;51.114;13.788;2022-08-18T13:42:07;98740.03;;;32.65;38.16
19672;BME280;9983;51.114;13.788;2022-08-18T13:47:07;98737.81;;;33.53;36.48
19672;BME280;9983;51.114;13.788;2022-08-18T13:52:09;98740.72;;;32.62;37.96
19672;BME280;9983;51.114;13.788;2022-08-18T13:57:11;98740.81;;;32.74;38.01
19672;BME280;9983;51.114;13.788;2022-08-18T14:02:12;98727.13;;;33.88;35.66
19672;BME280;9983;51.114;13.788;2022-08-18T14:07:12;98737.38;;;35.13;33.90
19672;BME280;9983;51.114;13.788;2022-08-18T14:12:20;98747.84;;;34.64;34.58
19672;BME280;9983;51.114;13.788;2022-08-18T14:17:21;98754.50;;;34.23;35.92
19672;BME280;9983;51.114;13.788;2022-08-18T14:22:22;98761.81;;;33.70;36.38
19672;BME280;9983;51.114;13.788;2022-08-18T14:27:41;98742.34;;;33.58;37.04
19672;BME280;9983;51.114;13.788;2022-08-18T14:32:42;98744.44;;;34.83;34.44
19672;BME280;9983;51.114;13.788;2022-08-18T14:37:43;98722.91;;;35.35;33.92
19672;BME280;9983;51.114;13.788;2022-08-18T14:42:43;98736.97;;;35.55;33.49
19672;BME280;9983;51.114;13.788;2022-08-18T14:47:44;98729.78;;;35.69;33.88
19672;BME280;9983;51.114;13.788;2022-08-18T14:52:44;98735.69;;;35.36;34.13
19672;BME280;9983;51.114;13.788;2022-08-18T14:57:44;98742.38;;;35.48;33.89
19672;BME280;9983;51.114;13.788;2022-08-18T15:02:46;98740.84;;;35.22;34.69
19672;BME280;9983;51.114;13.788;2022-08-18T15:07:48;98742.53;;;34.99;34.48
19672;BME280;9983;51.114;13.788;2022-08-18T15:12:48;98747.66;;;35.53;33.82
19672;BME280;9983;51.114;13.788;2022-08-18T15:17:49;98732.16;;;34.84;34.98
19672;BME280;9983;51.114;13.788;2022-08-18T15:22:50;98724.25;;;35.42;33.82
19672;BME280;9983;51.114;13.788;2022-08-18T15:28:20;98708.44;;;35.30;34.53
19672;BME280;9983;51.114;13.788;2022-08-18T15:33:21;98697.78;;;34.92;35.13
19672;BME280;9983;51.114;13.788;2022-08-18T15:38:23;98705.97;;;35.00;35.46
19672;BME280;9983;51.114;13.788;2022-08-18T15:43:26;98699.22;;;36.55;32.88
19672;BME280;9983;51.114;13.788;2022-08-18T15:48:27;98707.19;;;36.92;32.19
19672;BME280;9983;51.114;13.788;2022-08-18T15:53:27;98671.44;;;36.62;32.83
19672;BME280;9983;51.114;13.788;2022-08-18T15:58:27;98667.34;;;37.14;31.75
19672;BME280;9983;51.114;13.788;2022-08-18T16:03:28;98667.84;;;37.42;31.31
19672;BME280;9983;51.114;13.788;2022-08-18T16:08:29;98655.91;;;36.80;32.46
19672;BME280;9983;51.114;13.788;2022-08-18T16:13:29;98653.69;;;35.69;34.05
19672;BME280;9983;51.114;13.788;2022-08-18T16:18:30;98641.34;;;34.67;35.36
19672;BME280;9983;51.114;13.788;2022-08-18T16:23:30;98643.44;;;34.30;36.66
19672;BME280;9983;51.114;13.788;2022-08-18T16:28:30;98657.53;;;33.28;38.79
19672;BME280;9983;51.114;13.788;2022-08-18T16:33:30;98637.88;;;33.00;39.36
19672;BME280;9983;51.114;13.788;2022-08-18T16:38:32;98625.81;;;32.21;40.98
19672;BME280;9983;51.114;13.788;2022-08-18T16:43:34;98627.66;;;31.88;41.65
19672;BME280;9983;51.114;13.788;2022-08-18T16:48:34;98629.03;;;32.02;41.59
19672;BME280;9983;51.114;13.788;2022-08-18T16:53:34;98632.41;;;32.08;41.62
19672;BME280;9983;51.114;13.788;2022-08-18T16:58:34;98629.50;;;31.75;42.60
19672;BME280;9983;51.114;13.788;2022-08-18T17:03:53;98620.56;;;31.70;42.60
19672;BME280;9983;51.114;13.788;2022-08-18T17:09:06;98616.72;;;31.53;42.91
19672;BME280;9983;51.114;13.788;2022-08-18T17:14:09;98609.56;;;31.52;42.99
19672;BME280;9983;51.114;13.788;2022-08-18T17:19:09;98593.50;;;31.37;43.72
19672;BME280;9983;51.114;13.788;2022-08-18T17:24:09;98594.72;;;31.19;44.25
19672;BME280;9983;51.114;13.788;2022-08-18T17:29:20;98591.88;;;31.36;44.08
19672;BME280;9983;51.114;13.788;2022-08-18T17:34:29;98598.91;;;31.25;44.27
19672;BME280;9983;51.114;13.788;2022-08-18T17:39:39;98596.69;;;31.10;44.83
19672;BME280;9983;51.114;13.788;2022-08-18T17:44:44;98601.72;;;30.99;45.33
19672;BME280;9983;51.114;13.788;2022-08-18T17:49:45;98598.16;;;30.99;45.42
19672;BME280;9983;51.114;13.788;2022-08-18T17:55:27;98601.00;;;30.64;46.33
19672;BME280;9983;51.114;13.788;2022-08-18T18:00:28;98608.81;;;30.62;46.38
19672;BME280;9983;51.114;13.788;2022-08-18T18:05:52;98605.06;;;30.49;46.83
19672;BME280;9983;51.114;13.788;2022-08-18T18:11:08;98598.22;;;30.47;48.36
19672;BME280;9983;51.114;13.788;2022-08-18T18:16:26;98598.38;;;30.42;47.41
19672;BME280;9983;51.114;13.788;2022-08-18T18:21:29;98600.13;;;29.86;52.16
19672;BME280;9983;51.114;13.788;2022-08-18T18:26:35;98599.81;;;29.39;54.20
19672;BME280;9983;51.114;13.788;2022-08-18T18:31:36;98605.25;;;29.62;52.23
19672;BME280;9983;51.114;13.788;2022-08-18T18:36:43;98588.88;;;29.83;50.89
19672;BME280;9983;51.114;13.788;2022-08-18T18:41:45;98571.78;;;29.63;50.51
19672;BME280;9983;51.114;13.788;2022-08-18T18:46:50;98568.09;;;29.85;49.46
19672;BME280;9983;51.114;13.788;2022-08-18T18:52:13;98572.25;;;29.57;50.69
19672;BME280;9983;51.114;13.788;2022-08-18T19:03:00;98576.72;;;28.29;58.26
19672;BME280;9983;51.114;13.788;2022-08-18T19:08:15;98582.00;;;28.84;56.64
19672;BME280;9983;51.114;13.788;2022-08-18T19:13:20;98584.34;;;28.99;53.73
19672;BME280;9983;51.114;13.788;2022-08-18T19:18:32;98574.94;;;29.00;53.92
19672;BME280;9983;51.114;13.788;2022-08-18T19:24:02;98588.13;;;28.81;55.50
19672;BME280;9983;51.114;13.788;2022-08-18T19:29:09;98581.00;;;28.35;57.51
19672;BME280;9983;51.114;13.788;2022-08-18T19:34:17;98571.53;;;28.27;59.40
19672;BME280;9983;51.114;13.788;2022-08-18T19:39:26;98576.63;;;27.71;62.60
19672;BME280;9983;51.114;13.788;2022-08-18T20:00:53;98571.56;;;27.64;60.76
19672;BME280;9983;51.114;13.788;2022-08-18T20:06:06;98562.28;;;27.33;60.29
19672;BME280;9983;51.114;13.788;2022-08-18T20:11:22;98569.72;;;27.32;59.68
19672;BME280;9983;51.114;13.788;2022-08-18T20:16:36;98561.38;;;27.10;61.41
19672;BME280;9983;51.114;13.788;2022-08-18T20:21:43;98559.13;;;27.26;61.34
19672;BME280;9983;51.114;13.788;2022-08-18T20:26:47;98570.47;;;26.78;63.40
19672;BME280;9983;51.114;13.788;2022-08-18T20:36:49;98554.06;;;26.40;66.18
19672;BME280;9983;51.114;13.788;2022-08-18T20:41:50;98555.16;;;26.39;66.65
19672;BME280;9983;51.114;13.788;2022-08-18T20:52:12;98546.16;;;26.01;69.24
19672;BME280;9983;51.114;13.788;2022-08-18T20:57:14;98552.75;;;26.19;68.56
19672;BME280;9983;51.114;13.788;2022-08-18T21:02:27;98533.22;;;26.02;69.80
19672;BME280;9983;51.114;13.788;2022-08-18T21:07:35;98536.78;;;25.84;70.83
19672;BME280;9983;51.114;13.788;2022-08-18T21:12:36;98516.38;;;25.90;70.87
19672;BME280;9983;51.114;13.788;2022-08-18T21:17:36;98533.13;;;25.69;72.02
19672;BME280;9983;51.114;13.788;2022-08-18T21:22:39;98518.44;;;25.98;71.06
19672;BME280;9983;51.114;13.788;2022-08-18T21:27:41;98537.81;;;25.45;78.65
19672;BME280;9983;51.114;13.788;2022-08-18T21:32:43;98542.16;;;25.51;81.30
19672;BME280;9983;51.114;13.788;2022-08-18T21:38:04;98547.03;;;25.12;83.19
19672;BME280;9983;51.114;13.788;2022-08-18T21:43:06;98570.00;;;24.87;89.69
19672;BME280;9983;51.114;13.788;2022-08-18T21:48:08;98569.41;;;24.66;92.84
19672;BME280;9983;51.114;13.788;2022-08-18T22:03:22;98554.59;;;24.67;94.88
19672;BME280;9983;51.114;13.788;2022-08-18T22:08:25;98558.78;;;24.60;96.57
19672;BME280;9983;51.114;13.788;2022-08-18T22:13:27;98535.41;;;24.96;89.25
19672;BME280;9983;51.114;13.788;2022-08-18T22:18:46;98558.34;;;24.76;91.26
19672;BME280;9983;51.114;13.788;2022-08-18T22:23:46;98568.69;;;24.16;100.00
19672;BME280;9983;51.114;13.788;2022-08-18T22:34:10;98574.50;;;24.10;100.00
19672;BME280;9983;51.114;13.788;2022-08-18T22:39:12;98579.66;;;24.11;100.00
19672;BME280;9983;51.114;13.788;2022-08-18T22:44:12;98575.53;;;24.53;99.42
19672;BME280;9983;51.114;13.788;2022-08-18T22:49:12;98575.13;;;24.41;100.00
19672;BME280;9983;51.114;13.788;2022-08-18T22:54:13;98558.19;;;24.63;99.63
19672;BME280;9983;51.114;13.788;2022-08-18T22:59:14;98559.84;;;24.64;96.07
19672;BME280;9983;51.114;13.788;2022-08-18T23:04:17;98552.25;;;24.22;100.00
19672;BME280;9983;51.114;13.788;2022-08-18T23:09:26;98552.28;;;24.11;100.00
19672;BME280;9983;51.114;13.788;2022-08-18T23:14:27;98552.31;;;24.45;94.07
19672;BME280;9983;51.114;13.788;2022-08-18T23:19:31;98547.09;;;24.49;92.85
19672;BME280;9983;51.114;13.788;2022-08-18T23:24:32;98533.09;;;24.79;88.72
19672;BME280;9983;51.114;13.788;2022-08-18T23:29:32;98524.50;;;24.62;89.69
19672;BME280;9983;51.114;13.788;2022-08-18T23:34:36;98502.56;;;24.62;88.88
19672;BME280;9983;51.114;13.788;2022-08-18T23:39:37;98508.06;;;24.62;88.09
19672;BME280;9983;51.114;13.788;2022-08-18T23:44:39;98509.31;;;24.46;91.73
19672;BME280;9983;51.114;13.788;2022-08-18T23:49:39;98510.56;;;24.30;90.22
19672;BME280;9983;51.114;13.788;2022-08-18T23:54:40;98526.53;;;24.12;97.80
19672;BME280;9983;51.114;13.788;2022-08-18T23:59:40;98526.97;;;24.35;92.15
